Time;durP1;ratioP1;P1;durP2;ratioP2;P2;SDS_P1;SDS_P2;PMS_P1;PMS_P2;Temp;Humidity;BMP_temperature;BMP_pressure;BME280_temperature;BME280_humidity;BME280_pressure;Samples;Min_cycle;Max_cycle;Signal;HPM_P1;HPM_P2
2021/03/12 00:00:39;;;;;;;11.57;2.03;;;7.90;99.90;;;;;;5107352;28;20204;-76
2021/03/12 00:03:11;;;;;;;20.73;2.60;;;7.90;99.90;;;;;;5107728;27;20228;-77
2021/03/12 00:05:42;;;;;;;21.08;2.88;;;7.90;99.90;;;;;;5109027;27;20205;-78
2021/03/12 00:08:08;;;;;;;14.20;2.22;;;7.90;99.90;;;;;;5108685;28;20233;-76
2021/03/12 00:10:38;;;;;;;26.95;2.75;;;7.90;99.90;;;;;;5110024;28;20563;-77
2021/03/12 00:13:04;;;;;;;16.50;3.35;;;7.90;99.90;;;;;;5106414;28;20204;-77
2021/03/12 00:15:32;;;;;;;20.75;2.55;;;7.90;99.90;;;;;;5108247;28;20221;-78
2021/03/12 00:17:58;;;;;;;16.48;2.53;;;7.90;99.90;;;;;;5108423;27;20202;-78
2021/03/12 00:20:29;;;;;;;19.48;2.83;;;7.90;99.90;;;;;;5108283;28;20201;-78
2021/03/12 00:22:56;;;;;;;21.25;3.13;;;7.90;99.90;;;;;;5108594;28;20874;-75
2021/03/12 00:25:26;;;;;;;20.33;2.70;;;7.90;99.90;;;;;;5108678;28;20365;-78
2021/03/12 00:27:53;;;;;;;20.25;3.05;;;7.90;99.90;;;;;;5108595;28;20201;-76
2021/03/12 00:30:20;;;;;;;17.58;2.90;;;7.90;99.90;;;;;;5107657;28;20568;-77
2021/03/12 00:32:48;;;;;;;18.13;2.50;;;7.90;99.90;;;;;;5108194;28;20267;-75
2021/03/12 00:35:15;;;;;;;27.38;3.10;;;7.90;99.90;;;;;;5107509;28;20197;-75
2021/03/12 00:37:41;;;;;;;18.25;2.60;;;7.90;99.90;;;;;;5110810;28;20204;-77
2021/03/12 00:40:11;;;;;;;24.05;3.00;;;7.90;99.90;;;;;;5106631;28;20205;-77
2021/03/12 00:42:37;;;;;;;24.05;3.05;;;7.90;99.90;;;;;;5108824;28;20861;-76
2021/03/12 00:45:05;;;;;;;21.83;3.20;;;7.80;99.90;;;;;;5109023;27;20310;-77
2021/03/12 00:47:31;;;;;;;21.30;2.92;;;7.80;99.90;;;;;;5107672;28;20201;-75
2021/03/12 00:49:59;;;;;;;17.27;2.90;;;7.90;99.90;;;;;;5106611;28;20292;-78
2021/03/12 00:52:25;;;;;;;22.58;2.67;;;7.80;99.90;;;;;;5106727;28;20207;-78
2021/03/12 00:54:52;;;;;;;17.13;2.38;;;7.80;99.90;;;;;;5108097;28;20603;-76
2021/03/12 00:57:29;;;;;;;12.88;2.10;;;7.80;99.90;;;;;;5105031;28;20225;-75
2021/03/12 00:59:56;;;;;;;23.65;2.83;;;7.80;99.90;;;;;;5109802;28;20673;-77
2021/03/12 01:02:22;;;;;;;15.27;2.60;;;7.80;99.90;;;;;;5107087;28;20208;-76
2021/03/12 01:04:48;;;;;;;23.52;2.90;;;7.80;99.90;;;;;;5107179;27;20214;-77
2021/03/12 01:07:17;;;;;;;23.13;2.75;;;7.80;99.90;;;;;;5106549;27;20212;-77
2021/03/12 01:09:43;;;;;;;15.30;2.58;;;7.80;99.90;;;;;;5107548;28;20220;-76
2021/03/12 01:12:10;;;;;;;27.67;2.75;;;7.80;99.90;;;;;;5108097;28;20208;-76
2021/03/12 01:14:40;;;;;;;18.05;2.28;;;7.70;99.90;;;;;;5103880;28;20201;-77
2021/03/12 01:17:07;;;;;;;20.40;2.67;;;7.70;99.90;;;;;;5106942;28;20212;-76
2021/03/12 01:19:34;;;;;;;14.43;2.35;;;7.70;99.90;;;;;;5106917;28;20658;-77
2021/03/12 01:22:04;;;;;;;21.85;2.80;;;7.70;99.90;;;;;;5108085;28;20204;-77
2021/03/12 01:24:33;;;;;;;23.90;2.63;;;7.70;99.90;;;;;;5106394;28;20220;-77
2021/03/12 01:27:05;;;;;;;20.40;2.45;;;7.70;99.90;;;;;;5106924;28;20623;-76
2021/03/12 01:29:32;;;;;;;18.80;2.33;;;7.70;99.90;;;;;;5106725;28;20197;-77
2021/03/12 01:32:04;;;;;;;19.17;2.85;;;7.70;99.90;;;;;;5107464;27;20209;-77
2021/03/12 01:34:35;;;;;;;23.50;2.75;;;7.60;99.90;;;;;;5107774;27;20199;-76
2021/03/12 01:37:11;;;;;;;20.15;2.85;;;7.60;99.80;;;;;;5144829;27;20610;-76
2021/03/12 01:39:49;;;;;;;19.10;2.65;;;7.60;99.80;;;;;;5101280;27;20224;-77
2021/03/12 01:42:15;;;;;;;18.42;2.50;;;7.60;99.70;;;;;;5107958;27;20891;-77
2021/03/12 01:44:43;;;;;;;19.00;2.13;;;7.60;99.70;;;;;;5103300;28;20202;-77
2021/03/12 01:47:09;;;;;;;17.65;2.97;;;7.60;99.70;;;;;;5123163;27;20192;-76
2021/03/12 01:49:37;;;;;;;19.00;2.88;;;7.50;99.60;;;;;;5103360;28;20644;-76
2021/03/12 01:52:05;;;;;;;16.27;2.65;;;7.60;99.60;;;;;;5106603;27;20193;-77
2021/03/12 01:54:35;;;;;;;12.52;2.50;;;7.50;99.50;;;;;;5106624;28;20692;-77
2021/03/12 01:57:06;;;;;;;14.85;2.72;;;7.50;99.50;;;;;;5105370;27;20224;-76
2021/03/12 01:59:42;;;;;;;21.42;2.35;;;7.60;99.60;;;;;;5108043;28;20728;-77
2021/03/12 02:02:28;;;;;;;16.85;2.65;;;7.50;99.50;;;;;;5123577;27;20304;-77
2021/03/12 02:05:02;;;;;;;20.80;2.65;;;7.50;99.50;;;;;;5101582;28;20197;-76
2021/03/12 02:07:29;;;;;;;14.75;2.67;;;7.50;99.50;;;;;;5107279;27;20205;-76
2021/03/12 02:10:28;;;;;;;24.38;2.63;;;7.50;99.90;;;;;;5118500;27;20224;-76
2021/03/12 02:13:01;;;;;;;23.58;2.72;;;7.50;99.60;;;;;;5122376;27;20196;-76
2021/03/12 02:15:31;;;;;;;23.77;2.75;;;7.50;99.60;;;;;;5108558;27;20221;-77
2021/03/12 02:18:05;;;;;;;18.83;2.92;;;7.40;99.60;;;;;;5108283;28;20205;-77
2021/03/12 02:20:39;;;;;;;28.92;3.20;;;7.40;99.70;;;;;;5126329;27;20232;-77
2021/03/12 02:23:17;;;;;;;27.65;3.08;;;7.40;99.70;;;;;;5124362;27;20203;-75
2021/03/12 02:25:51;;;;;;;22.00;3.47;;;7.40;99.80;;;;;;5106818;28;20651;-77
2021/03/12 02:28:21;;;;;;;27.27;3.20;;;7.40;99.90;;;;;;5104157;28;20257;-77
2021/03/12 02:30:48;;;;;;;20.63;3.03;;;7.40;99.90;;;;;;5104160;28;20209;-77
2021/03/12 02:33:15;;;;;;;24.83;3.00;;;7.40;99.90;;;;;;5106698;28;20224;-76
2021/03/12 02:35:46;;;;;;;33.70;3.63;;;7.30;99.90;;;;;;5103301;28;20275;-78
2021/03/12 02:38:28;;;;;;;31.33;3.33;;;7.30;99.90;;;;;;5107830;27;20559;-76
2021/03/12 02:41:03;;;;;;;21.52;3.58;;;7.30;99.90;;;;;;5117807;27;20200;-77
2021/03/12 02:43:33;;;;;;;24.42;2.95;;;7.30;99.90;;;;;;5105263;27;20218;-77
2021/03/12 02:46:00;;;;;;;21.17;3.38;;;7.30;99.90;;;;;;5106715;28;20209;-77
2021/03/12 02:48:31;;;;;;;21.50;2.70;;;7.30;99.90;;;;;;5088879;28;20224;-78
2021/03/12 02:50:58;;;;;;;23.75;3.00;;;7.30;99.90;;;;;;5090363;28;20197;-77
2021/03/12 02:53:27;;;;;;;19.92;2.60;;;7.30;99.90;;;;;;5091268;28;20569;-76
2021/03/12 02:56:03;;;;;;;23.70;3.15;;;7.30;99.90;;;;;;5094414;28;20251;-76
2021/03/12 02:58:33;;;;;;;12.45;2.50;;;7.30;99.90;;;;;;5090237;28;20202;-77
2021/03/12 03:01:02;;;;;;;24.33;3.13;;;7.30;99.90;;;;;;5094621;27;20244;-76
2021/03/12 03:03:54;;;;;;;20.65;2.95;;;7.30;99.90;;;;;;5095362;28;20261;-76
2021/03/12 03:06:40;;;;;;;23.80;3.17;;;7.30;99.90;;;;;;5107327;27;20220;-76
2021/03/12 03:09:08;;;;;;;25.52;2.60;;;7.30;99.90;;;;;;5090796;28;20193;-76
2021/03/12 03:11:36;;;;;;;22.38;3.08;;;7.20;99.90;;;;;;5108375;28;20547;-77
2021/03/12 03:14:05;;;;;;;19.88;3.20;;;7.20;99.90;;;;;;5088575;28;20219;-77
2021/03/12 03:16:36;;;;;;;20.02;3.15;;;7.30;99.90;;;;;;5087891;28;20628;-77
2021/03/12 03:19:08;;;;;;;20.13;3.00;;;7.20;99.90;;;;;;5090044;28;20209;-75
2021/03/12 03:21:35;;;;;;;24.42;2.97;;;7.20;99.90;;;;;;5088843;28;20198;-76
2021/03/12 03:24:03;;;;;;;24.63;3.28;;;7.20;99.90;;;;;;5088722;27;20296;-77
2021/03/12 03:26:30;;;;;;;21.15;2.67;;;7.20;99.90;;;;;;5091620;28;20653;-76
2021/03/12 03:28:58;;;;;;;23.65;3.00;;;7.20;99.90;;;;;;5090155;28;20209;-76
2021/03/12 03:31:27;;;;;;;27.15;2.78;;;7.20;99.90;;;;;;5087586;28;21012;-76
2021/03/12 03:33:54;;;;;;;20.17;2.85;;;7.20;99.90;;;;;;5105678;27;20612;-77
2021/03/12 03:36:20;;;;;;;22.90;3.30;;;7.20;99.90;;;;;;5084698;28;20263;-77
2021/03/12 03:38:46;;;;;;;24.80;3.00;;;7.20;99.90;;;;;;5088704;28;20211;-76
2021/03/12 03:41:16;;;;;;;25.95;3.13;;;7.20;99.90;;;;;;5091127;28;20724;-77
2021/03/12 03:43:47;;;;;;;26.02;3.03;;;7.20;99.90;;;;;;5087293;28;20270;-77
2021/03/12 03:46:20;;;;;;;25.70;2.90;;;7.20;99.90;;;;;;5088308;27;20220;-77
2021/03/12 03:48:51;;;;;;;20.52;3.25;;;7.20;99.90;;;;;;5092093;28;20203;-76
2021/03/12 03:51:28;;;;;;;26.08;2.80;;;7.20;99.90;;;;;;5090014;28;20201;-77
2021/03/12 03:53:55;;;;;;;14.57;2.42;;;7.20;99.90;;;;;;5109836;27;20193;-77
2021/03/12 03:56:22;;;;;;;20.33;2.92;;;7.20;99.90;;;;;;5087575;28;20712;-77
2021/03/12 03:58:51;;;;;;;29.45;3.40;;;7.20;99.90;;;;;;5087788;28;20299;-77
2021/03/12 04:01:18;;;;;;;23.90;3.35;;;7.20;99.90;;;;;;5090915;27;20201;-76
2021/03/12 04:03:54;;;;;;;18.38;2.72;;;7.20;99.90;;;;;;5086806;28;20266;-77
2021/03/12 04:06:21;;;;;;;24.30;3.25;;;7.20;99.90;;;;;;5087269;28;20567;-77
2021/03/12 04:08:48;;;;;;;26.85;3.53;;;7.10;99.90;;;;;;5088191;28;20193;-76
2021/03/12 04:11:16;;;;;;;22.50;3.05;;;7.10;99.90;;;;;;5090108;28;20279;-78
2021/03/12 04:13:44;;;;;;;35.13;3.47;;;7.20;99.90;;;;;;5085279;28;20201;-77
2021/03/12 04:16:13;;;;;;;25.40;3.40;;;7.20;99.90;;;;;;5104978;27;20242;-77
2021/03/12 04:18:41;;;;;;;25.42;2.90;;;7.20;99.90;;;;;;5091151;27;20228;-77
2021/03/12 04:21:08;;;;;;;29.95;3.65;;;7.10;99.90;;;;;;5106196;27;20677;-76
2021/03/12 04:23:36;;;;;;;21.23;3.30;;;7.10;99.90;;;;;;5088008;28;20202;-76
2021/03/12 04:26:05;;;;;;;27.33;3.75;;;7.10;99.90;;;;;;5088765;28;20270;-77
2021/03/12 04:28:32;;;;;;;29.50;4.15;;;7.20;99.90;;;;;;5091743;28;20197;-77
2021/03/12 04:30:59;;;;;;;28.92;4.05;;;7.10;99.90;;;;;;5090265;28;20209;-76
2021/03/12 04:33:26;;;;;;;21.60;3.10;;;7.10;99.90;;;;;;5106053;27;20345;-77
2021/03/12 04:35:57;;;;;;;29.15;3.75;;;7.10;99.90;;;;;;5090906;28;20224;-77
2021/03/12 04:38:26;;;;;;;21.17;3.30;;;7.10;99.90;;;;;;5087928;28;20258;-78
2021/03/12 04:40:54;;;;;;;37.13;3.70;;;7.10;99.90;;;;;;5085498;28;20578;-77
2021/03/12 04:43:23;;;;;;;31.38;4.03;;;7.10;99.90;;;;;;5087569;28;20425;-76
2021/03/12 04:45:52;;;;;;;27.35;3.40;;;7.10;99.90;;;;;;5087495;28;20640;-77
2021/03/12 04:48:19;;;;;;;30.85;3.70;;;7.10;99.90;;;;;;5106191;28;20201;-76
2021/03/12 04:50:47;;;;;;;32.42;3.80;;;7.10;99.90;;;;;;5087351;28;20205;-75
2021/03/12 04:53:14;;;;;;;27.98;3.08;;;7.10;99.90;;;;;;5087406;28;20206;-76
2021/03/12 04:55:42;;;;;;;23.35;3.30;;;7.10;99.90;;;;;;5104470;27;20851;-76
2021/03/12 04:58:12;;;;;;;39.17;4.22;;;7.10;99.90;;;;;;5085887;28;20201;-77
2021/03/12 05:00:39;;;;;;;39.42;4.80;;;7.10;99.90;;;;;;5085195;28;21616;-77
2021/03/12 05:03:10;;;;;;;20.90;2.97;;;7.10;99.90;;;;;;5071814;28;20201;-77
2021/03/12 05:05:41;;;;;;;31.95;3.75;;;7.10;99.90;;;;;;5087968;28;20203;-76
2021/03/12 05:08:12;;;;;;;18.65;3.70;;;7.10;99.90;;;;;;5085040;28;20201;-77
2021/03/12 05:10:58;;;;;;;23.10;3.17;;;7.10;99.90;;;;;;5088020;27;20254;-76
2021/03/12 05:13:26;;;;;;;24.23;3.15;;;7.10;99.90;;;;;;5083262;28;20291;-77
2021/03/12 05:15:52;;;;;;;21.95;2.88;;;7.10;99.90;;;;;;5085741;28;20311;-77
2021/03/12 05:18:19;;;;;;;33.13;3.60;;;7.10;99.90;;;;;;5089389;28;20248;-76
2021/03/12 05:20:49;;;;;;;24.95;3.33;;;7.10;99.90;;;;;;5084384;28;20338;-77
2021/03/12 05:23:16;;;;;;;22.60;3.17;;;7.00;99.90;;;;;;5104093;27;20197;-77
2021/03/12 05:25:44;;;;;;;29.40;3.10;;;7.10;99.90;;;;;;5085211;28;20199;-76
2021/03/12 05:28:11;;;;;;;30.17;3.72;;;7.00;99.90;;;;;;5090123;28;20204;-76
2021/03/12 05:30:38;;;;;;;37.08;3.45;;;7.00;99.90;;;;;;5082989;28;20591;-77
2021/03/12 05:33:05;;;;;;;22.88;2.95;;;7.00;99.90;;;;;;5106361;28;20275;-75
2021/03/12 05:35:32;;;;;;;24.95;3.55;;;7.00;99.90;;;;;;5088096;28;20258;-76
2021/03/12 05:37:58;;;;;;;24.67;3.50;;;7.00;99.90;;;;;;5091366;28;20253;-77
2021/03/12 05:40:29;;;;;;;26.45;3.97;;;7.00;99.90;;;;;;5093949;28;20207;-76
2021/03/12 05:42:56;;;;;;;18.83;2.70;;;7.00;99.90;;;;;;5086211;28;20252;-76
2021/03/12 05:45:24;;;;;;;22.00;3.13;;;7.00;99.90;;;;;;5088362;28;20197;-76
2021/03/12 05:48:00;;;;;;;29.80;3.55;;;7.00;99.90;;;;;;5089180;28;20222;-78
2021/03/12 05:50:27;;;;;;;23.20;3.13;;;7.00;99.90;;;;;;5103150;28;20201;-77
2021/03/12 05:52:54;;;;;;;29.25;3.17;;;7.00;99.90;;;;;;5086663;28;20241;-77
2021/03/12 05:55:22;;;;;;;23.60;3.35;;;7.00;99.90;;;;;;5085690;28;22134;-76
2021/03/12 05:57:49;;;;;;;25.50;3.25;;;7.00;99.90;;;;;;5087648;28;20201;-75
2021/03/12 06:00:17;;;;;;;24.02;3.13;;;7.00;99.90;;;;;;5088355;28;20315;-79
2021/03/12 06:02:53;;;;;;;17.88;3.05;;;7.00;99.90;;;;;;5106244;28;20220;-77
2021/03/12 06:05:30;;;;;;;23.88;3.25;;;7.00;99.90;;;;;;5084289;28;20197;-76
2021/03/12 06:07:57;;;;;;;24.33;3.05;;;7.00;99.90;;;;;;5106899;28;20212;-78
2021/03/12 06:10:25;;;;;;;28.75;3.20;;;7.00;99.90;;;;;;5087958;28;20235;-77
2021/03/12 06:12:55;;;;;;;23.38;3.28;;;7.00;99.90;;;;;;5088073;28;20675;-76
2021/03/12 06:15:34;;;;;;;20.20;2.50;;;6.90;99.90;;;;;;5081144;28;20568;-77
2021/03/12 06:18:14;;;;;;;29.40;3.25;;;6.90;99.90;;;;;;5105130;28;20216;-79
2021/03/12 06:20:42;;;;;;;28.58;3.25;;;7.00;99.90;;;;;;5102711;28;20208;-78
2021/03/12 06:23:10;;;;;;;26.50;3.10;;;6.90;99.90;;;;;;5092050;28;20292;-78
2021/03/12 06:25:37;;;;;;;24.45;2.85;;;6.90;99.90;;;;;;5105813;27;20196;-76
2021/03/12 06:28:17;;;;;;;20.38;3.20;;;6.90;99.90;;;;;;5093666;28;20236;-75
2021/03/12 06:31:26;;;;;;;21.20;2.97;;;6.90;99.90;;;;;;5098476;27;20209;-78
2021/03/12 06:34:12;;;;;;;23.92;3.10;;;7.00;99.90;;;;;;5110531;27;20296;-77
2021/03/12 06:36:58;;;;;;;20.95;2.83;;;6.90;99.90;;;;;;5107422;27;20278;-79
2021/03/12 06:39:36;;;;;;;21.55;2.72;;;7.00;99.90;;;;;;5089948;28;20228;-79
2021/03/12 06:42:15;;;;;;;19.17;2.95;;;7.00;99.90;;;;;;5107074;27;20213;-78
2021/03/12 06:44:49;;;;;;;28.67;3.00;;;7.00;99.90;;;;;;5090506;28;20220;-77
2021/03/12 06:47:21;;;;;;;19.60;3.05;;;7.00;99.90;;;;;;5106910;27;20208;-77
2021/03/12 06:49:54;;;;;;;24.02;3.13;;;6.90;99.90;;;;;;5091124;28;20208;-78
2021/03/12 06:52:56;;;;;;;19.35;2.95;;;7.00;99.90;;;;;;5098941;27;20204;-77
2021/03/12 06:55:42;;;;;;;30.08;3.65;;;7.00;99.90;;;;;;5091095;28;20211;-77
2021/03/12 06:58:12;;;;;;;26.48;3.17;;;7.00;99.90;;;;;;5090631;28;20732;-79
2021/03/12 07:00:45;;;;;;;30.23;3.00;;;7.00;99.90;;;;;;5088298;28;20204;-79
2021/03/12 07:03:21;;;;;;;23.10;2.90;;;7.00;99.90;;;;;;5091297;28;20239;-78
2021/03/12 07:06:04;;;;;;;22.05;3.33;;;7.00;99.90;;;;;;5094164;28;20208;-78
2021/03/12 07:08:40;;;;;;;24.17;3.08;;;7.00;99.90;;;;;;5088172;27;20197;-80
2021/03/12 07:11:27;;;;;;;28.35;2.83;;;7.00;99.90;;;;;;5107803;27;20204;-78
2021/03/12 07:14:31;;;;;;;25.17;3.15;;;7.00;99.90;;;;;;5107366;27;20564;-77
2021/03/12 07:17:07;;;;;;;28.02;3.90;;;7.10;99.90;;;;;;5088514;28;20673;-78
2021/03/12 07:19:33;;;;;;;25.23;3.45;;;7.10;99.90;;;;;;5087525;27;20201;-77
2021/03/12 07:22:05;;;;;;;24.70;2.97;;;7.10;99.90;;;;;;5089648;28;20201;-77
2021/03/12 07:24:36;;;;;;;33.65;4.55;;;7.10;99.90;;;;;;5090512;27;20205;-79
2021/03/12 07:27:07;;;;;;;24.83;3.33;;;7.20;99.90;;;;;;5090052;28;20574;-77
2021/03/12 07:29:49;;;;;;;30.45;4.43;;;7.20;99.90;;;;;;5088537;27;20208;-78
2021/03/12 07:32:24;;;;;;;19.23;3.08;;;7.20;99.90;;;;;;5086582;27;20566;-78
2021/03/12 07:34:53;;;;;;;21.00;3.47;;;7.30;99.90;;;;;;5106794;27;20190;-79
2021/03/12 07:37:42;;;;;;;24.55;3.25;;;7.30;99.90;;;;;;5069234;28;20973;-79
2021/03/12 07:40:12;;;;;;;32.50;3.95;;;7.40;99.90;;;;;;5065942;28;20344;-77
2021/03/12 07:42:42;;;;;;;22.13;3.92;;;7.40;99.90;;;;;;5064245;28;20633;-77
2021/03/12 07:45:37;;;;;;;26.85;4.28;;;7.40;99.90;;;;;;5082921;28;20658;-76
2021/03/12 07:48:14;;;;;;;44.42;4.22;;;7.50;99.90;;;;;;5071443;28;20237;-77
2021/03/12 07:51:11;;;;;;;27.52;4.07;;;7.50;99.90;;;;;;5060785;28;20229;-78
2021/03/12 07:53:49;;;;;;;44.85;4.95;;;7.50;99.90;;;;;;5084564;28;20206;-80
2021/03/12 07:56:53;;;;;;;26.27;3.95;;;7.60;99.90;;;;;;5066555;28;20221;-78
2021/03/12 07:59:59;;;;;;;29.02;4.40;;;7.60;99.90;;;;;;5065620;28;20217;-75
2021/03/12 08:02:57;;;;;;;27.77;3.80;;;7.70;99.90;;;;;;5064115;28;20214;-76
2021/03/12 08:05:45;;;;;;;28.70;4.03;;;7.80;99.90;;;;;;5064624;28;20355;-76
2021/03/12 08:08:32;;;;;;;33.28;4.50;;;7.80;99.90;;;;;;5066917;28;20217;-75
2021/03/12 08:11:20;;;;;;;28.02;4.10;;;7.80;99.90;;;;;;5063164;28;20670;-76
2021/03/12 08:13:48;;;;;;;25.90;3.92;;;7.90;99.90;;;;;;5067640;28;20218;-76
2021/03/12 08:16:22;;;;;;;27.30;4.25;;;7.90;99.90;;;;;;5063170;28;20679;-76
2021/03/12 08:18:52;;;;;;;29.35;4.00;;;8.00;99.90;;;;;;5066767;28;20205;-77
2021/03/12 08:21:37;;;;;;;25.60;3.97;;;8.00;99.90;;;;;;5067561;28;20228;-76
2021/03/12 08:24:47;;;;;;;35.88;4.47;;;8.00;99.90;;;;;;5071952;28;20628;-77
2021/03/12 08:27:39;;;;;;;28.45;4.05;;;8.10;99.90;;;;;;5072529;28;20209;-77
2021/03/12 08:30:49;;;;;;;37.80;4.22;;;8.20;99.90;;;;;;5048308;28;20228;-77
2021/03/12 08:33:36;;;;;;;36.22;4.53;;;8.20;99.90;;;;;;5065516;28;20213;-77
2021/03/12 08:36:31;;;;;;;34.72;4.65;;;8.30;99.90;;;;;;5087833;28;20332;-77
2021/03/12 08:39:25;;;;;;;33.58;4.50;;;8.30;99.90;;;;;;5104484;28;20681;-77
2021/03/12 08:42:13;;;;;;;28.90;3.45;;;8.40;99.90;;;;;;5105319;27;20315;-76
2021/03/12 08:44:59;;;;;;;36.97;4.82;;;8.40;99.90;;;;;;5086761;28;20201;-77
2021/03/12 08:47:40;;;;;;;32.90;4.50;;;8.50;99.90;;;;;;5088698;28;20193;-77
2021/03/12 08:50:09;;;;;;;25.17;4.13;;;8.50;99.90;;;;;;5087179;28;20197;-76
2021/03/12 08:52:46;;;;;;;30.77;4.28;;;8.50;99.90;;;;;;5104560;28;20197;-76
2021/03/12 08:55:37;;;;;;;26.13;4.20;;;8.50;99.90;;;;;;5083230;28;20292;-76
2021/03/12 08:58:13;;;;;;;36.15;4.53;;;8.50;99.90;;;;;;5090218;28;20308;-76
2021/03/12 09:00:42;;;;;;;45.17;4.90;;;8.60;99.90;;;;;;5084178;28;20197;-76
2021/03/12 09:03:31;;;;;;;31.38;4.53;;;8.60;99.90;;;;;;5104995;28;20294;-77
2021/03/12 09:06:19;;;;;;;38.08;4.38;;;8.70;99.90;;;;;;5088739;28;20677;-76
2021/03/12 09:09:10;;;;;;;32.92;4.93;;;8.70;99.90;;;;;;5104006;27;20193;-76
2021/03/12 09:11:56;;;;;;;39.00;5.03;;;8.70;99.90;;;;;;5103808;28;20218;-76
2021/03/12 09:14:26;;;;;;;39.20;4.20;;;8.70;99.90;;;;;;5088622;28;20228;-76
2021/03/12 09:16:59;;;;;;;40.80;4.85;;;8.70;99.90;;;;;;5088753;28;20223;-75
2021/03/12 09:19:30;;;;;;;28.30;3.80;;;8.70;99.90;;;;;;5086258;28;20254;-76
2021/03/12 09:22:02;;;;;;;35.00;4.32;;;8.60;99.90;;;;;;5088033;28;20298;-76
2021/03/12 09:24:36;;;;;;;33.67;4.22;;;8.50;99.90;;;;;;5083389;28;20216;-76
2021/03/12 09:27:03;;;;;;;22.40;4.03;;;8.40;99.90;;;;;;5088289;28;20235;-76
2021/03/12 09:29:53;;;;;;;23.45;3.67;;;8.30;99.90;;;;;;5098801;28;20239;-76
2021/03/12 09:32:36;;;;;;;33.38;4.72;;;8.10;99.90;;;;;;5086708;28;20221;-77
2021/03/12 09:35:15;;;;;;;29.27;4.50;;;8.00;99.90;;;;;;5085956;28;20200;-76
2021/03/12 09:37:42;;;;;;;29.50;4.68;;;7.90;99.90;;;;;;5086319;28;20253;-76
2021/03/12 09:40:31;;;;;;;30.80;5.32;;;7.80;99.90;;;;;;5088951;28;20197;-77
2021/03/12 09:43:09;;;;;;;33.30;5.90;;;7.70;99.90;;;;;;5091599;28;20272;-76
2021/03/12 09:46:02;;;;;;;30.80;5.00;;;7.70;99.90;;;;;;5101645;28;20213;-76
2021/03/12 09:48:39;;;;;;;32.03;5.72;;;7.60;99.90;;;;;;5086079;28;20212;-77
2021/03/12 09:51:13;;;;;;;29.45;5.80;;;7.60;99.90;;;;;;5086423;28;20196;-76
2021/03/12 09:53:43;;;;;;;26.60;5.47;;;7.50;99.90;;;;;;5095286;28;20206;-78
2021/03/12 09:56:13;;;;;;;19.90;4.68;;;7.40;99.90;;;;;;5091405;28;20604;-75
2021/03/12 09:58:48;;;;;;;20.20;4.07;;;7.20;99.90;;;;;;5091743;28;20201;-77
2021/03/12 10:01:39;;;;;;;16.73;3.42;;;7.10;99.90;;;;;;5110684;27;20685;-78
2021/03/12 10:04:29;;;;;;;14.30;3.72;;;7.00;99.90;;;;;;5092456;28;20201;-76
2021/03/12 10:07:06;;;;;;;18.77;3.35;;;6.90;99.90;;;;;;5091067;28;20236;-78
2021/03/12 10:09:35;;;;;;;16.92;4.00;;;6.80;99.90;;;;;;5106000;28;20207;-76
2021/03/12 10:12:20;;;;;;;23.63;5.13;;;6.80;99.90;;;;;;5092088;28;20220;-76
2021/03/12 10:15:09;;;;;;;37.42;5.15;;;6.80;99.90;;;;;;5092768;27;20809;-78
2021/03/12 10:17:43;;;;;;;33.00;5.20;;;6.70;99.90;;;;;;5088649;27;20689;-77
2021/03/12 10:20:35;;;;;;;34.70;4.55;;;6.80;99.90;;;;;;5091038;27;20205;-77
2021/03/12 10:23:06;;;;;;;33.90;4.00;;;6.80;99.90;;;;;;5084911;28;20288;-76
2021/03/12 10:25:34;;;;;;;33.65;4.60;;;6.90;99.90;;;;;;5106855;27;20270;-75
2021/03/12 10:28:03;;;;;;;31.38;3.80;;;6.90;99.90;;;;;;5107453;27;20546;-75
2021/03/12 10:30:30;;;;;;;32.17;4.20;;;7.00;99.90;;;;;;5109414;27;20198;-75
2021/03/12 10:32:59;;;;;;;23.10;3.90;;;7.10;99.90;;;;;;5088480;28;20205;-76
2021/03/12 10:35:31;;;;;;;29.95;3.45;;;7.20;99.90;;;;;;5107637;27;20249;-76
2021/03/12 10:38:01;;;;;;;41.40;3.85;;;7.30;99.90;;;;;;5109151;27;20209;-76
2021/03/12 10:40:34;;;;;;;31.80;4.13;;;7.40;99.90;;;;;;5107604;27;20353;-77
2021/03/12 10:43:11;;;;;;;31.30;4.22;;;7.50;99.90;;;;;;5087101;27;20209;-76
2021/03/12 10:45:45;;;;;;;33.13;4.20;;;7.60;99.90;;;;;;5088711;28;20205;-77
2021/03/12 10:48:11;;;;;;;32.42;4.15;;;7.70;99.90;;;;;;5106458;27;20208;-76
2021/03/12 10:50:40;;;;;;;28.13;3.63;;;7.80;99.90;;;;;;5087076;28;20220;-79
2021/03/12 10:53:12;;;;;;;34.97;4.32;;;7.90;99.90;;;;;;5107627;28;20216;-78
2021/03/12 10:55:41;;;;;;;29.95;3.88;;;8.00;99.90;;;;;;5090234;28;20566;-75
2021/03/12 10:58:21;;;;;;;24.42;4.05;;;8.10;99.90;;;;;;5089579;27;20201;-76
2021/03/12 11:01:06;;;;;;;24.63;3.85;;;8.20;99.90;;;;;;5104583;28;20568;-76
2021/03/12 11:03:33;;;;;;;21.58;3.50;;;8.20;99.90;;;;;;5107364;27;20523;-76
2021/03/12 11:05:59;;;;;;;23.13;3.67;;;8.30;99.90;;;;;;5088794;27;20216;-77
2021/03/12 11:08:28;;;;;;;27.38;4.30;;;8.30;99.90;;;;;;5106879;27;20205;-77
2021/03/12 11:10:54;;;;;;;28.67;3.88;;;8.40;99.90;;;;;;5106325;27;20670;-76
2021/03/12 11:13:21;;;;;;;24.25;3.10;;;8.40;99.90;;;;;;5108493;27;20210;-77
2021/03/12 11:15:47;;;;;;;22.30;3.42;;;8.50;99.90;;;;;;5105397;28;20246;-77
2021/03/12 11:18:13;;;;;;;23.33;3.15;;;8.50;99.90;;;;;;5108216;27;20193;-77
2021/03/12 11:20:40;;;;;;;20.92;2.97;;;8.50;99.90;;;;;;5108638;27;20692;-76
2021/03/12 11:23:06;;;;;;;36.65;4.40;;;8.50;99.90;;;;;;5105558;27;20202;-76
2021/03/12 11:25:34;;;;;;;27.35;3.40;;;8.50;99.90;;;;;;5090004;28;20204;-76
2021/03/12 11:28:00;;;;;;;33.70;3.63;;;8.50;99.90;;;;;;5107308;27;20197;-77
2021/03/12 11:30:27;;;;;;;31.60;3.67;;;8.50;99.90;;;;;;5106168;27;20201;-77
2021/03/12 11:32:53;;;;;;;22.52;3.92;;;8.50;99.90;;;;;;5107189;27;20205;-77
2021/03/12 11:35:20;;;;;;;26.38;3.60;;;8.60;99.90;;;;;;5102669;27;20255;-77
2021/03/12 11:37:46;;;;;;;24.52;3.55;;;8.60;99.90;;;;;;5090094;28;20209;-77
2021/03/12 11:40:14;;;;;;;29.15;3.45;;;8.70;99.90;;;;;;5085641;28;20193;-77
2021/03/12 11:42:42;;;;;;;21.30;3.65;;;8.70;99.90;;;;;;5106060;27;20208;-77
2021/03/12 11:45:11;;;;;;;22.35;3.83;;;8.70;99.90;;;;;;5105210;27;20209;-77
2021/03/12 11:47:38;;;;;;;28.92;4.00;;;8.80;99.90;;;;;;5109323;27;20199;-76
2021/03/12 11:50:07;;;;;;;22.88;3.75;;;8.80;99.90;;;;;;5089896;28;20205;-77
2021/03/12 11:52:33;;;;;;;30.83;3.38;;;8.90;99.90;;;;;;5086804;28;20601;-77
2021/03/12 11:55:00;;;;;;;39.92;4.03;;;8.90;99.90;;;;;;5106389;27;20193;-76
2021/03/12 11:57:26;;;;;;;17.33;3.42;;;8.90;99.90;;;;;;5086814;28;20594;-77
2021/03/12 11:59:54;;;;;;;20.23;3.40;;;8.90;99.90;;;;;;5107118;27;20250;-76
2021/03/12 12:02:20;;;;;;;22.45;3.33;;;8.90;99.90;;;;;;5108880;27;20193;-76
2021/03/12 12:04:47;;;;;;;22.92;3.47;;;9.00;99.90;;;;;;5106337;27;20560;-77
2021/03/12 12:07:15;;;;;;;30.77;3.60;;;9.00;99.90;;;;;;5107135;27;20273;-77
2021/03/12 12:09:42;;;;;;;16.42;3.22;;;9.10;99.90;;;;;;5106659;27;20547;-78
2021/03/12 12:12:10;;;;;;;25.33;3.78;;;9.10;99.90;;;;;;5106305;27;20212;-77
2021/03/12 12:14:36;;;;;;;19.40;3.58;;;9.10;99.90;;;;;;5093443;28;20213;-78
2021/03/12 12:17:04;;;;;;;19.67;3.58;;;9.10;99.90;;;;;;5089376;27;20220;-77
2021/03/12 12:19:32;;;;;;;21.80;3.35;;;9.10;99.90;;;;;;5090754;28;20201;-77
2021/03/12 12:21:58;;;;;;;24.50;4.03;;;9.10;99.90;;;;;;5107108;27;20197;-77
2021/03/12 12:24:25;;;;;;;19.83;3.63;;;9.10;99.90;;;;;;5108846;27;20204;-78
2021/03/12 12:26:51;;;;;;;28.00;3.22;;;9.10;99.90;;;;;;5107323;27;20193;-77
2021/03/12 12:29:18;;;;;;;21.77;3.83;;;9.10;99.90;;;;;;5106302;27;20210;-77
2021/03/12 12:31:46;;;;;;;23.75;4.03;;;9.20;99.90;;;;;;5107970;27;20205;-76
2021/03/12 12:34:13;;;;;;;25.38;4.20;;;9.20;99.90;;;;;;5107809;27;20197;-78
2021/03/12 12:36:39;;;;;;;22.10;3.88;;;9.10;99.90;;;;;;5109444;27;20229;-78
2021/03/12 12:39:09;;;;;;;18.55;3.80;;;9.10;99.90;;;;;;5087423;28;20247;-78
2021/03/12 12:41:38;;;;;;;21.38;3.63;;;9.10;99.90;;;;;;5092521;28;20308;-78
2021/03/12 12:44:05;;;;;;;18.95;3.92;;;9.10;99.90;;;;;;5090002;27;20211;-78
2021/03/12 12:46:32;;;;;;;13.45;2.60;;;9.10;99.90;;;;;;5088091;28;20273;-78
2021/03/12 12:48:58;;;;;;;19.45;3.47;;;9.00;99.90;;;;;;5088918;28;20208;-78
2021/03/12 12:51:25;;;;;;;10.20;2.28;;;8.90;99.90;;;;;;5104563;28;20198;-76
2021/03/12 12:53:52;;;;;;;14.43;2.67;;;8.90;99.90;;;;;;5105123;28;20201;-76
2021/03/12 12:56:18;;;;;;;12.52;2.25;;;8.70;99.90;;;;;;5105406;27;21318;-77
2021/03/12 12:58:45;;;;;;;10.20;1.80;;;8.60;99.90;;;;;;5089454;27;20687;-77
2021/03/12 13:01:11;;;;;;;8.57;1.65;;;8.50;99.90;;;;;;5087066;27;20213;-75
2021/03/12 13:03:37;;;;;;;4.40;1.20;;;8.20;99.90;;;;;;5105206;28;20206;-74
2021/03/12 13:06:05;;;;;;;5.85;1.35;;;7.80;99.90;;;;;;5103891;28;20209;-76
2021/03/12 13:08:32;;;;;;;7.82;1.60;;;7.60;99.90;;;;;;5103709;28;20197;-75
2021/03/12 13:10:59;;;;;;;7.88;1.50;;;7.30;99.90;;;;;;5091759;28;20201;-76
2021/03/12 13:13:26;;;;;;;9.10;1.73;;;7.10;99.90;;;;;;5086088;27;20213;-76
2021/03/12 13:15:54;;;;;;;11.95;2.42;;;7.00;99.90;;;;;;5104528;27;20224;-76